Accueil
METAR-TAF:

METAR-TAF

Aéroports :

Aéroport de Huesca-Pyrénées

Huesca, Espagne

latitude: 42-04-32N, longitude: 0-18-58W, altitude: 539 m

Observation

Le bulletin a été fait il y a 26 minutes, à 02:00 UTC
Vent 3 kt de nord-ouest
Température 15°C
Humidité 72%
Pression 1022 hPa
Visibilité 10 km ou plus

METAR: LEHC 190200Z AUTO 31003KT 9999 NCD 15/10 Q1022

Heure: 04:26 (02:26 UTC)

Prévision

Le bulletin a été fait il y a 18 heures et 26 minutes, à 08:00 UTC
Prévision valable du 18 à 09 UTC au 19 à 09 UTC
Vent 9 kt de ouest/sud-ouest
Visibilité 10 km ou plus
Nuages épars à une hauteur de 2500 ft
Temporairement
du 18 à 18 UTC au 18 à 24 UTC
Vent 10 kt de est/sud-est
Evoluant progressivement
du 19 à 00 UTC au 19 à 02 UTC
Vent 3 kt de direction variable

TAF: LEHC 180800Z 1809/1909 24009KT 9999 SCT025 TX28/1813Z TN15/1905Z TEMPO 1818/1824 11010KT BECMG 1900/1902 VRB03KT

Observations et prévisions météorologiques de plus de 4000 aéroports (messages METAR et TAF).

Les stations disponibles sont représentées par des disques jaunes et rouges sur la carte.

Passer la souris dessus pour voir le nom de la station.

Cliquer dessus pour voir les observations et prévisions météorologiques.

Pour changer de carte: cliquez sur les boutons verts avec une croix noire pour zoomer, sur le bouton vert avec un tiret pour effectuer un zoom arrière, ou sur les flèches vertes pour les cartes adjacentes.


METAR-TAF: